EGHA weather

Compton Abbas Aerodrome
Shaftesbury, England, United Kingdom

Public forecast

Using degrees Celsius for public forecast. Weather courtesy of forecast.io.

Closest aviation weather report (METAR) to Compton Abbas Aerodrome

Closest report is Bournemouth Airport, 16.3 nm (30.2 km) SE. Retrieved 2020/08/07 17:20 UTC (16 minutes ago):

EGHH 071720Z VRB02KT CAVOK 27/13 Q1016

Closest aviation forecast (TAF) to Compton Abbas Aerodrome

Forecast is more than 12 hours old.

Closest forecast is Bournemouth Airport, 16.3 nm (30.2 km) SE. Retrieved 2020/02/21 21:06 UTC (6 months ago):

TAF EGHH 210200Z 2021/2123 CNL